Time;durP1;ratioP1;P1;durP2;ratioP2;P2;SDS_P1;SDS_P2;PMS_P1;PMS_P2;Temp;Humidity;BMP_temperature;BMP_pressure;BME280_temperature;BME280_humidity;BME280_pressure;Samples;Min_cycle;Max_cycle;Signal;HPM_P1;HPM_P2
2022/09/01 00:01:07;;;;;;;18.13;16.90;;;14.70;99.90;;;;;;5042228;28;21000;-81
2022/09/01 00:03:36;;;;;;;17.63;16.33;;;14.70;99.90;;;;;;5043388;28;20747;-80
2022/09/01 00:06:08;;;;;;;18.73;17.13;;;14.70;99.90;;;;;;5045434;28;21025;-81
2022/09/01 00:08:35;;;;;;;17.50;16.07;;;14.70;99.90;;;;;;5046375;28;20633;-79
2022/09/01 00:11:02;;;;;;;19.20;17.60;;;14.70;99.90;;;;;;5044935;28;20626;-80
2022/09/01 00:13:32;;;;;;;18.30;16.90;;;14.70;99.90;;;;;;5044047;28;20734;-80
2022/09/01 00:15:59;;;;;;;18.37;17.00;;;14.70;99.90;;;;;;5046487;28;21281;-80
2022/09/01 00:18:25;;;;;;;20.00;18.27;;;14.70;99.90;;;;;;5044017;28;20713;-79
2022/09/01 00:20:57;;;;;;;19.67;18.07;;;14.70;99.90;;;;;;5047822;28;20721;-80
2022/09/01 00:23:25;;;;;;;18.50;16.73;;;14.70;99.90;;;;;;5045168;28;20654;-80
2022/09/01 00:25:52;;;;;;;18.23;16.83;;;14.70;99.90;;;;;;5046073;28;20654;-80
2022/09/01 00:28:19;;;;;;;18.13;16.83;;;14.70;99.90;;;;;;5045056;28;20623;-79
2022/09/01 00:30:46;;;;;;;17.93;16.53;;;14.70;99.90;;;;;;5045957;28;20716;-80
2022/09/01 00:33:13;;;;;;;17.53;15.77;;;14.70;99.90;;;;;;5045903;28;21046;-80
2022/09/01 00:35:42;;;;;;;16.70;15.30;;;14.60;99.90;;;;;;5045600;28;21087;-81
2022/09/01 00:38:10;;;;;;;15.47;14.37;;;14.60;99.90;;;;;;5042916;28;20640;-79
2022/09/01 00:40:38;;;;;;;15.90;14.70;;;14.60;99.90;;;;;;5045987;28;20644;-79
2022/09/01 00:43:13;;;;;;;15.23;14.13;;;14.60;99.90;;;;;;5048024;28;20717;-80
2022/09/01 00:45:50;;;;;;;15.23;14.13;;;14.60;99.90;;;;;;5049734;28;20999;-80
2022/09/01 00:48:19;;;;;;;15.37;14.17;;;14.60;99.90;;;;;;5042869;28;20675;-80
2022/09/01 00:50:47;;;;;;;15.43;14.23;;;14.60;99.90;;;;;;5046820;28;20644;-81
2022/09/01 00:53:15;;;;;;;13.83;12.63;;;14.60;99.90;;;;;;5045996;28;20745;-81
2022/09/01 00:55:42;;;;;;;15.87;14.50;;;14.60;99.90;;;;;;5045096;28;20725;-80
2022/09/01 00:58:09;;;;;;;15.93;14.63;;;14.60;99.90;;;;;;5044962;28;20871;-80
2022/09/01 01:00:39;;;;;;;15.53;14.00;;;14.60;99.90;;;;;;5046999;28;20665;-80
2022/09/01 01:03:08;;;;;;;13.90;12.90;;;14.60;99.90;;;;;;5045300;28;20621;-81
2022/09/01 01:05:39;;;;;;;16.60;15.30;;;14.60;99.90;;;;;;5044500;28;20709;-81
2022/09/01 01:08:07;;;;;;;15.30;14.10;;;14.60;99.90;;;;;;5045938;28;20918;-80
2022/09/01 01:10:41;;;;;;;15.43;14.33;;;14.50;99.90;;;;;;5042774;28;20721;-79
2022/09/01 01:13:11;;;;;;;15.40;14.20;;;14.50;99.90;;;;;;5043168;28;21197;-79
2022/09/01 01:15:42;;;;;;;16.27;15.03;;;14.60;99.90;;;;;;5045015;28;20630;-80
2022/09/01 01:18:09;;;;;;;16.40;15.17;;;14.50;99.90;;;;;;5043338;28;20662;-80
2022/09/01 01:23:28;;;;;;;15.43;14.30;;;14.50;99.90;;;;;;5043683;28;21216;-79
2022/09/01 01:25:59;;;;;;;16.40;14.80;;;14.50;99.90;;;;;;5044831;28;20638;-79
2022/09/01 01:28:30;;;;;;;17.97;16.70;;;14.50;99.90;;;;;;5042675;28;20690;-79
2022/09/01 01:31:01;;;;;;;17.77;16.40;;;14.40;99.90;;;;;;5044620;28;20978;-79
2022/09/01 01:33:31;;;;;;;18.43;16.90;;;14.40;99.90;;;;;;5044491;28;20758;-79
2022/09/01 01:36:00;;;;;;;18.60;17.30;;;14.40;99.90;;;;;;5045860;28;20629;-79
2022/09/01 01:38:29;;;;;;;17.97;16.57;;;14.40;99.90;;;;;;5041878;28;20758;-79
2022/09/01 01:40:57;;;;;;;18.30;16.80;;;14.40;99.90;;;;;;5045293;28;20680;-79
2022/09/01 01:43:26;;;;;;;17.60;15.83;;;14.30;99.90;;;;;;5043907;28;20736;-79
2022/09/01 01:46:01;;;;;;;15.53;14.37;;;14.40;99.90;;;;;;5046270;28;20641;-79
2022/09/01 01:48:33;;;;;;;17.40;15.90;;;14.30;99.90;;;;;;5042046;28;20633;-79
2022/09/01 01:51:01;;;;;;;17.20;15.80;;;14.30;99.90;;;;;;5043963;28;20618;-79
2022/09/01 01:53:29;;;;;;;16.43;15.23;;;14.30;99.90;;;;;;5043776;28;20737;-79
2022/09/01 01:55:59;;;;;;;16.60;15.40;;;14.30;99.90;;;;;;5044051;28;21035;-79
2022/09/01 01:58:28;;;;;;;16.73;15.43;;;14.30;99.90;;;;;;5041654;28;20623;-79
2022/09/01 02:00:57;;;;;;;18.50;17.00;;;14.30;99.90;;;;;;5044953;28;20663;-79
2022/09/01 02:03:27;;;;;;;17.83;16.00;;;14.30;99.90;;;;;;5043357;28;20744;-79
2022/09/01 02:05:55;;;;;;;17.20;15.60;;;14.30;99.90;;;;;;5043803;28;21125;-79
2022/09/01 02:08:24;;;;;;;17.23;15.60;;;14.30;99.90;;;;;;5043457;28;20978;-79
2022/09/01 02:10:54;;;;;;;17.47;16.27;;;14.30;99.90;;;;;;5040490;28;20626;-79
2022/09/01 02:13:29;;;;;;;17.13;15.53;;;14.30;99.90;;;;;;5040656;28;20658;-79
2022/09/01 02:15:59;;;;;;;16.60;15.50;;;14.20;99.90;;;;;;5044278;28;20687;-79
2022/09/01 02:18:29;;;;;;;16.00;15.00;;;14.20;99.90;;;;;;5042253;28;21130;-79
2022/09/01 02:20:57;;;;;;;16.33;15.10;;;14.20;99.90;;;;;;5045534;28;20684;-79
2022/09/01 02:23:25;;;;;;;16.07;14.97;;;14.10;99.90;;;;;;5043747;28;20765;-79
2022/09/01 02:25:54;;;;;;;19.40;17.67;;;14.20;99.90;;;;;;5042837;28;20716;-79
2022/09/01 02:28:23;;;;;;;18.63;17.00;;;14.10;99.90;;;;;;5041190;28;20634;-79
2022/09/01 02:30:53;;;;;;;17.77;16.47;;;14.10;99.90;;;;;;5043195;28;20625;-79
2022/09/01 02:33:21;;;;;;;18.20;16.50;;;14.10;99.90;;;;;;5043148;28;20660;-81
2022/09/01 02:35:51;;;;;;;17.60;16.10;;;14.10;99.90;;;;;;5043512;28;20812;-79
2022/09/01 02:38:19;;;;;;;18.97;17.00;;;14.10;99.90;;;;;;5039897;28;21117;-79
2022/09/01 02:40:47;;;;;;;18.70;17.33;;;14.10;99.90;;;;;;5044912;28;21007;-81
2022/09/01 02:43:18;;;;;;;18.00;16.70;;;14.10;99.90;;;;;;5043445;28;21197;-80
2022/09/01 02:45:50;;;;;;;17.40;16.20;;;14.10;99.90;;;;;;5040331;28;20637;-79
2022/09/01 02:48:17;;;;;;;18.10;16.60;;;14.10;99.90;;;;;;5041106;28;21184;-80
2022/09/01 02:50:44;;;;;;;18.93;17.33;;;14.00;99.90;;;;;;5045882;28;20984;-80
2022/09/01 02:53:14;;;;;;;18.50;17.20;;;14.00;99.90;;;;;;5046748;28;20625;-81
2022/09/01 02:55:42;;;;;;;20.00;18.60;;;14.00;99.90;;;;;;5044940;28;20875;-80
2022/09/01 02:58:15;;;;;;;20.63;18.93;;;14.00;99.90;;;;;;5044096;28;20670;-80
2022/09/01 03:00:42;;;;;;;18.67;17.07;;;14.00;99.90;;;;;;5040140;28;20719;-80
2022/09/01 03:03:12;;;;;;;20.43;18.73;;;14.00;99.90;;;;;;5043302;28;20721;-81
2022/09/01 03:05:39;;;;;;;20.13;18.63;;;14.00;99.90;;;;;;5042761;28;20648;-80
2022/09/01 03:08:09;;;;;;;20.30;18.27;;;14.00;99.90;;;;;;5042850;28;20620;-80
2022/09/01 03:10:40;;;;;;;20.87;19.13;;;14.00;99.90;;;;;;5041618;28;20614;-80
2022/09/01 03:13:11;;;;;;;19.33;17.80;;;14.00;99.90;;;;;;5043711;28;20638;-79
2022/09/01 03:15:38;;;;;;;20.80;18.93;;;13.90;99.90;;;;;;5043812;28;20625;-79
2022/09/01 03:18:07;;;;;;;20.90;19.40;;;14.00;99.90;;;;;;5040966;28;20759;-82
2022/09/01 03:20:38;;;;;;;22.00;20.00;;;13.90;99.90;;;;;;5044328;28;20638;-80
2022/09/01 03:23:07;;;;;;;21.33;19.63;;;13.90;99.90;;;;;;5039918;28;20695;-80
2022/09/01 03:25:35;;;;;;;20.87;19.40;;;13.90;99.90;;;;;;5040493;28;20666;-80
2022/09/01 03:28:03;;;;;;;21.43;19.83;;;13.90;99.90;;;;;;5042690;28;20721;-80
2022/09/01 03:30:33;;;;;;;19.50;17.90;;;13.80;99.90;;;;;;5040580;28;20714;-80
2022/09/01 03:33:02;;;;;;;20.10;18.70;;;13.90;99.90;;;;;;5043257;28;20630;-79
2022/09/01 03:35:31;;;;;;;20.47;19.07;;;13.90;99.90;;;;;;5041608;28;20693;-80
2022/09/01 03:38:00;;;;;;;21.60;19.90;;;13.90;99.90;;;;;;5047759;28;20668;-80
2022/09/01 03:40:31;;;;;;;19.73;18.30;;;13.90;99.90;;;;;;5050255;28;20684;-79
2022/09/01 03:42:58;;;;;;;19.47;17.90;;;13.90;99.90;;;;;;5049112;28;20618;-80
2022/09/01 03:45:26;;;;;;;18.17;16.87;;;13.90;99.90;;;;;;5048761;28;20716;-80
2022/09/01 03:47:54;;;;;;;19.37;17.83;;;14.00;99.90;;;;;;5050094;28;20603;-80
2022/09/01 03:50:23;;;;;;;19.77;18.27;;;14.00;99.90;;;;;;5049313;28;20665;-80
2022/09/01 03:52:54;;;;;;;19.93;18.43;;;14.10;99.90;;;;;;5050004;28;20650;-80
2022/09/01 03:55:27;;;;;;;21.63;19.83;;;14.10;99.90;;;;;;5048164;28;20629;-80
2022/09/01 03:57:56;;;;;;;19.97;18.23;;;14.10;99.90;;;;;;5046476;28;20708;-80
2022/09/01 04:00:28;;;;;;;19.83;18.33;;;14.20;99.90;;;;;;5048329;28;20717;-80
2022/09/01 04:02:58;;;;;;;18.90;17.60;;;14.10;99.90;;;;;;5049106;28;20653;-80
2022/09/01 04:05:27;;;;;;;18.20;16.90;;;14.20;99.90;;;;;;5048795;28;20660;-80
2022/09/01 04:07:56;;;;;;;18.63;16.90;;;14.10;99.90;;;;;;5046182;28;20627;-80
2022/09/01 04:10:25;;;;;;;19.17;17.80;;;14.10;99.90;;;;;;5047531;28;20780;-80
2022/09/01 04:12:57;;;;;;;19.53;18.13;;;14.10;99.90;;;;;;5047435;28;20632;-80
2022/09/01 04:15:23;;;;;;;20.00;18.27;;;14.20;99.90;;;;;;5049245;28;21040;-80
2022/09/01 04:18:11;;;;;;;19.60;18.13;;;14.10;99.90;;;;;;5048324;28;20727;-80
2022/09/01 04:20:48;;;;;;;19.80;18.30;;;14.10;99.90;;;;;;5049149;28;20966;-80
2022/09/01 04:23:20;;;;;;;19.10;17.50;;;14.10;99.90;;;;;;5047948;28;20719;-80
2022/09/01 04:25:49;;;;;;;20.20;18.57;;;14.10;99.90;;;;;;5047562;28;20665;-80
2022/09/01 04:28:21;;;;;;;20.43;19.03;;;14.00;99.90;;;;;;5046659;28;20724;-80
2022/09/01 04:30:50;;;;;;;19.97;18.37;;;14.00;99.90;;;;;;5048472;28;20626;-80
2022/09/01 04:33:17;;;;;;;19.03;17.63;;;14.00;99.90;;;;;;5046981;28;20649;-80
2022/09/01 04:35:45;;;;;;;19.60;17.90;;;14.00;99.90;;;;;;5048060;28;20728;-79
2022/09/01 04:38:14;;;;;;;19.43;18.03;;;14.00;99.90;;;;;;5045360;28;20680;-80
2022/09/01 04:40:42;;;;;;;19.57;18.27;;;13.90;99.90;;;;;;5048686;28;20629;-80
2022/09/01 04:43:10;;;;;;;20.90;18.80;;;13.90;99.90;;;;;;5046634;28;21205;-80
2022/09/01 04:45:38;;;;;;;20.00;18.40;;;13.90;99.90;;;;;;5048466;28;20625;-81
2022/09/01 04:48:06;;;;;;;19.83;18.43;;;13.90;99.90;;;;;;5031220;28;20657;-80
2022/09/01 04:50:33;;;;;;;19.70;18.30;;;13.90;99.90;;;;;;5045338;28;21198;-80
2022/09/01 04:53:01;;;;;;;19.87;18.30;;;14.00;99.90;;;;;;5045600;28;21259;-80
2022/09/01 04:55:29;;;;;;;18.70;17.47;;;14.00;99.90;;;;;;5044457;28;20662;-80
2022/09/01 04:57:57;;;;;;;19.60;18.13;;;14.00;99.90;;;;;;5045549;28;20672;-79
2022/09/01 05:00:30;;;;;;;19.90;18.40;;;14.00;99.90;;;;;;5043228;28;20721;-80
2022/09/01 05:03:02;;;;;;;21.27;19.57;;;14.10;99.90;;;;;;5044743;28;20638;-80
2022/09/01 05:05:38;;;;;;;19.30;17.90;;;14.10;99.90;;;;;;5042093;28;20607;-79
2022/09/01 05:08:05;;;;;;;19.50;17.90;;;14.20;99.90;;;;;;5043255;28;20965;-79
2022/09/01 05:10:33;;;;;;;19.90;18.27;;;14.20;99.90;;;;;;5045229;28;20623;-80
2022/09/01 05:13:00;;;;;;;19.93;18.40;;;14.30;99.90;;;;;;5040500;28;20717;-80
2022/09/01 05:15:29;;;;;;;20.27;18.70;;;14.40;99.90;;;;;;5046297;28;20641;-80
2022/09/01 05:17:57;;;;;;;21.60;20.00;;;14.40;99.90;;;;;;5043530;28;20689;-80
2022/09/01 05:20:24;;;;;;;23.20;21.10;;;14.40;99.90;;;;;;5040539;28;20670;-79
2022/09/01 05:22:53;;;;;;;19.00;17.47;;;14.40;99.90;;;;;;5045189;28;20656;-78
2022/09/01 05:25:22;;;;;;;19.73;18.43;;;14.50;99.90;;;;;;5042437;28;21239;-78
2022/09/01 05:27:50;;;;;;;21.00;19.40;;;14.50;99.90;;;;;;5041520;28;20666;-78
2022/09/01 05:30:17;;;;;;;19.27;17.77;;;14.50;99.90;;;;;;5042839;28;20620;-78
2022/09/01 05:32:47;;;;;;;18.93;17.57;;;14.60;99.90;;;;;;5046541;28;20791;-79
2022/09/01 05:35:15;;;;;;;20.00;18.50;;;14.70;99.90;;;;;;5043760;28;20741;-78
2022/09/01 05:37:42;;;;;;;19.50;17.73;;;14.70;99.90;;;;;;5037873;28;20670;-80
2022/09/01 05:40:14;;;;;;;20.20;18.47;;;14.80;99.90;;;;;;5045253;28;20645;-79
2022/09/01 05:42:42;;;;;;;20.80;19.30;;;14.90;99.90;;;;;;5044816;28;20649;-79
2022/09/01 05:45:10;;;;;;;21.30;19.70;;;15.00;99.90;;;;;;5044603;28;20649;-79
2022/09/01 05:47:37;;;;;;;22.47;20.57;;;15.00;99.90;;;;;;5043704;28;20637;-79
2022/09/01 05:50:07;;;;;;;21.63;19.93;;;15.20;99.90;;;;;;5044721;28;20634;-79
2022/09/01 05:52:38;;;;;;;21.67;20.03;;;15.20;99.90;;;;;;5047915;28;20974;-79
2022/09/01 05:55:07;;;;;;;22.30;20.70;;;15.30;99.90;;;;;;5044931;28;20650;-79
2022/09/01 05:57:35;;;;;;;22.10;20.40;;;15.40;99.90;;;;;;5044947;28;20746;-79
2022/09/01 06:00:09;;;;;;;24.93;22.30;;;15.40;99.90;;;;;;5043130;28;20638;-79
2022/09/01 06:02:38;;;;;;;22.50;20.70;;;15.50;99.90;;;;;;5045170;28;20720;-79
2022/09/01 06:05:07;;;;;;;24.23;22.33;;;15.60;99.90;;;;;;5042869;28;20662;-79
2022/09/01 06:07:36;;;;;;;22.50;20.73;;;15.60;99.90;;;;;;5044464;28;20639;-79
2022/09/01 06:10:04;;;;;;;22.00;20.37;;;15.80;99.90;;;;;;5046643;28;21236;-79
2022/09/01 06:12:33;;;;;;;22.53;20.83;;;15.70;99.90;;;;;;5042307;28;20634;-79
2022/09/01 06:15:00;;;;;;;22.53;20.43;;;15.80;99.90;;;;;;5044747;28;20711;-79
2022/09/01 06:17:29;;;;;;;21.93;19.77;;;15.80;99.90;;;;;;5041513;28;20732;-78
2022/09/01 06:19:57;;;;;;;22.77;21.07;;;15.90;99.90;;;;;;5045999;28;20633;-79
2022/09/01 06:22:27;;;;;;;22.50;20.70;;;16.00;99.90;;;;;;5041608;28;20724;-78
2022/09/01 06:24:55;;;;;;;21.73;19.90;;;16.10;99.90;;;;;;5043917;28;21037;-79
2022/09/01 06:27:22;;;;;;;19.97;18.57;;;16.10;99.90;;;;;;5043556;28;20669;-78
2022/09/01 06:29:55;;;;;;;20.17;18.83;;;16.20;99.90;;;;;;5044033;28;20692;-78
2022/09/01 06:32:24;;;;;;;18.20;16.80;;;16.20;99.90;;;;;;5043168;28;20626;-80
2022/09/01 06:34:51;;;;;;;17.70;16.30;;;16.30;99.90;;;;;;5043185;28;20657;-80
2022/09/01 06:37:21;;;;;;;19.50;17.90;;;16.40;99.90;;;;;;5041767;28;20626;-78
2022/09/01 06:39:50;;;;;;;17.83;16.17;;;16.50;99.90;;;;;;5044012;28;20669;-78
2022/09/01 06:42:18;;;;;;;15.70;14.50;;;16.60;99.90;;;;;;5042662;28;20638;-79
2022/09/01 06:44:45;;;;;;;17.00;15.70;;;16.60;99.90;;;;;;5045003;28;20660;-79
2022/09/01 06:47:14;;;;;;;17.93;16.53;;;16.70;99.90;;;;;;5043803;28;20715;-79
2022/09/01 06:49:41;;;;;;;17.10;15.67;;;16.80;99.90;;;;;;5044367;28;21184;-79
2022/09/01 06:52:08;;;;;;;15.13;14.00;;;16.90;99.90;;;;;;5042803;28;20640;-79
2022/09/01 06:54:38;;;;;;;15.00;13.80;;;17.00;99.90;;;;;;5044084;28;20658;-79
2022/09/01 06:57:06;;;;;;;16.30;14.70;;;17.10;99.90;;;;;;5042431;28;20641;-79
2022/09/01 06:59:33;;;;;;;15.53;14.33;;;17.20;99.90;;;;;;5042483;28;20662;-79
2022/09/01 07:02:00;;;;;;;12.80;11.67;;;17.40;99.90;;;;;;5044353;28;20630;-79
2022/09/01 07:04:28;;;;;;;14.30;13.00;;;17.50;99.90;;;;;;5040429;28;20669;-79
2022/09/01 07:06:55;;;;;;;12.10;11.10;;;17.60;99.90;;;;;;5044492;28;20732;-80
2022/09/01 07:09:23;;;;;;;10.70;10.00;;;17.80;99.90;;;;;;5041316;28;20639;-80
2022/09/01 07:11:51;;;;;;;13.20;12.10;;;17.90;99.90;;;;;;5042589;28;20633;-80
2022/09/01 07:14:21;;;;;;;11.73;10.80;;;18.10;99.90;;;;;;5043699;28;21564;-79
2022/09/01 07:16:49;;;;;;;11.57;10.77;;;18.20;99.90;;;;;;5026016;28;20739;-79
2022/09/01 07:19:17;;;;;;;11.53;10.73;;;18.30;99.90;;;;;;5039961;28;20672;-80
2022/09/01 07:21:44;;;;;;;8.67;7.90;;;18.40;99.90;;;;;;5043076;28;20728;-80
2022/09/01 07:24:12;;;;;;;7.70;7.10;;;18.40;99.90;;;;;;5041336;28;20725;-79
2022/09/01 07:26:41;;;;;;;9.17;8.47;;;18.50;99.90;;;;;;5042789;28;20779;-80
2022/09/01 07:29:09;;;;;;;8.80;8.10;;;18.60;99.90;;;;;;5044084;28;20622;-80
2022/09/01 07:31:42;;;;;;;12.10;8.50;;;18.80;99.90;;;;;;5043828;28;20634;-80
2022/09/01 07:34:11;;;;;;;9.10;8.30;;;18.90;99.90;;;;;;5042820;28;20614;-81
2022/09/01 07:36:39;;;;;;;8.80;8.00;;;19.00;99.90;;;;;;5043411;28;20785;-79
2022/09/01 07:39:06;;;;;;;9.97;9.10;;;19.10;99.90;;;;;;5042006;28;20666;-79
2022/09/01 07:41:34;;;;;;;9.50;8.60;;;19.20;99.90;;;;;;5043542;28;20676;-80
2022/09/01 07:44:03;;;;;;;9.70;8.83;;;19.20;99.90;;;;;;5044557;28;20692;-80
2022/09/01 07:46:32;;;;;;;9.67;8.87;;;19.20;99.90;;;;;;5040742;28;20745;-80
2022/09/01 07:49:01;;;;;;;8.93;8.13;;;19.20;99.90;;;;;;5040631;28;20637;-80
2022/09/01 07:51:29;;;;;;;8.33;7.63;;;19.30;99.90;;;;;;5040970;28;21077;-79
2022/09/01 07:53:57;;;;;;;11.77;8.70;;;19.30;99.90;;;;;;5045285;28;20660;-80
2022/09/01 07:56:25;;;;;;;9.33;8.63;;;19.30;99.90;;;;;;5039026;28;20658;-80
2022/09/01 07:58:53;;;;;;;11.70;10.70;;;19.30;99.90;;;;;;5042565;28;20652;-79
2022/09/01 08:01:22;;;;;;;9.43;8.60;;;19.40;99.90;;;;;;5042013;28;20610;-80
2022/09/01 08:03:51;;;;;;;10.57;9.33;;;19.40;99.90;;;;;;5042776;28;20645;-80
2022/09/01 08:06:23;;;;;;;10.53;9.50;;;19.50;99.90;;;;;;5041339;28;21019;-80
2022/09/01 08:08:51;;;;;;;10.03;9.03;;;19.60;99.90;;;;;;5044952;28;20687;-79
2022/09/01 08:11:19;;;;;;;10.00;9.20;;;19.60;99.90;;;;;;5039313;28;20622;-80
2022/09/01 08:13:47;;;;;;;9.20;8.40;;;19.60;99.90;;;;;;5042408;28;20633;-80
2022/09/01 08:16:15;;;;;;;10.57;9.77;;;19.70;99.90;;;;;;5040902;28;20719;-79
2022/09/01 08:18:44;;;;;;;10.50;9.70;;;19.70;99.90;;;;;;5038785;28;20674;-79
2022/09/01 08:21:12;;;;;;;10.43;9.53;;;19.80;99.90;;;;;;5040832;28;20622;-80
2022/09/01 08:23:42;;;;;;;10.87;10.10;;;19.80;99.90;;;;;;5043856;28;20633;-80
2022/09/01 08:26:11;;;;;;;11.10;10.30;;;19.90;99.90;;;;;;5044545;28;20814;-80
2022/09/01 08:28:38;;;;;;;8.97;8.27;;;19.90;99.90;;;;;;5047358;28;20626;-80
2022/09/01 08:31:10;;;;;;;9.43;8.63;;;19.80;99.90;;;;;;5043056;28;21234;-79
2022/09/01 08:33:37;;;;;;;11.00;10.20;;;19.90;99.90;;;;;;5045311;28;20650;-80
2022/09/01 08:36:06;;;;;;;8.30;7.70;;;20.00;99.90;;;;;;5045724;28;20650;-80
2022/09/01 08:38:34;;;;;;;7.63;7.03;;;20.00;99.90;;;;;;5046374;28;20671;-80
2022/09/01 08:41:03;;;;;;;9.03;8.40;;;20.10;99.90;;;;;;5047791;28;20630;-80
2022/09/01 08:43:44;;;;;;;8.27;7.77;;;20.00;99.90;;;;;;5043436;28;21189;-80
2022/09/01 08:46:17;;;;;;;8.27;7.77;;;20.10;99.90;;;;;;5044877;28;20661;-80
2022/09/01 08:48:48;;;;;;;6.90;6.30;;;20.30;99.90;;;;;;5045972;28;20622;-79
2022/09/01 08:51:22;;;;;;;8.50;7.80;;;20.40;99.90;;;;;;5044972;28;20743;-80
2022/09/01 08:53:55;;;;;;;6.50;5.90;;;20.50;99.90;;;;;;5046195;28;20614;-80
2022/09/01 08:56:23;;;;;;;7.90;7.40;;;20.60;99.90;;;;;;5044662;28;20662;-80
2022/09/01 08:58:50;;;;;;;7.00;6.40;;;20.60;99.90;;;;;;5045801;28;20659;-80
2022/09/01 09:01:26;;;;;;;6.57;6.07;;;20.60;99.90;;;;;;5044443;28;20685;-80
2022/09/01 09:04:09;;;;;;;8.33;6.60;;;20.60;99.90;;;;;;5045736;28;20677;-80
2022/09/01 09:06:47;;;;;;;6.40;5.80;;;20.70;99.90;;;;;;5045571;28;20653;-80
2022/09/01 09:09:14;;;;;;;6.83;6.33;;;20.80;99.90;;;;;;5043905;28;20663;-80
2022/09/01 09:12:08;;;;;;;7.27;6.83;;;20.90;99.90;;;;;;5030800;28;20625;-80
2022/09/01 09:14:59;;;;;;;5.90;5.40;;;21.10;99.90;;;;;;5047003;28;20694;-80
2022/09/01 09:17:33;;;;;;;6.73;5.80;;;21.10;99.90;;;;;;5044197;28;20712;-79
2022/09/01 09:20:01;;;;;;;6.63;5.97;;;21.20;99.90;;;;;;5045690;28;20757;-80
2022/09/01 09:22:28;;;;;;;6.50;6.00;;;21.20;99.90;;;;;;5042979;28;20645;-80
2022/09/01 09:25:02;;;;;;;6.93;6.33;;;21.30;99.90;;;;;;5049969;28;21192;-80
2022/09/01 09:27:34;;;;;;;6.33;5.70;;;21.30;99.90;;;;;;5045489;28;20737;-79
2022/09/01 09:30:04;;;;;;;6.07;5.60;;;21.30;99.90;;;;;;5045442;28;20610;-80
2022/09/01 09:32:45;;;;;;;5.80;5.30;;;21.30;99.90;;;;;;5045025;28;20622;-80
2022/09/01 09:35:26;;;;;;;6.43;5.93;;;21.50;99.90;;;;;;5042796;28;21153;-80
2022/09/01 09:37:54;;;;;;;5.37;4.97;;;21.60;99.90;;;;;;5040000;28;20815;-79
2022/09/01 09:40:23;;;;;;;5.00;4.60;;;21.70;99.90;;;;;;5044389;28;21012;-80
2022/09/01 09:43:09;;;;;;;5.10;4.67;;;21.70;99.90;;;;;;5044513;28;20614;-80
2022/09/01 09:45:38;;;;;;;5.10;4.70;;;21.70;99.90;;;;;;5043408;28;20657;-80
2022/09/01 09:48:09;;;;;;;5.37;4.97;;;21.90;99.90;;;;;;5043574;28;20630;-80
2022/09/01 09:50:38;;;;;;;5.30;4.90;;;22.00;99.90;;;;;;5047883;28;20665;-80
2022/09/01 09:53:17;;;;;;;5.63;5.23;;;22.20;99.90;;;;;;5044456;28;20625;-80
2022/09/01 09:55:56;;;;;;;4.60;4.30;;;22.40;99.90;;;;;;5038687;28;20768;-80
2022/09/01 09:58:29;;;;;;;4.80;4.50;;;22.40;99.90;;;;;;5044208;28;20636;-80
2022/09/01 10:01:09;;;;;;;4.90;4.60;;;22.60;99.90;;;;;;5045515;28;20715;-80
2022/09/01 10:03:44;;;;;;;4.40;4.07;;;22.70;99.90;;;;;;5045227;28;20647;-80
2022/09/01 10:06:30;;;;;;;4.50;4.10;;;22.80;99.90;;;;;;5042445;28;20645;-80
2022/09/01 10:08:58;;;;;;;4.03;3.73;;;22.90;99.90;;;;;;5041068;28;21177;-80
2022/09/01 10:11:28;;;;;;;4.70;4.30;;;22.90;99.90;;;;;;5041629;28;20634;-80
2022/09/01 10:13:57;;;;;;;4.23;3.93;;;22.90;99.90;;;;;;5044360;28;20579;-80
2022/09/01 10:16:29;;;;;;;5.20;4.70;;;23.00;99.90;;;;;;5044172;28;20712;-78
2022/09/01 10:18:59;;;;;;;4.43;4.03;;;23.00;99.90;;;;;;5044589;28;20634;-78
2022/09/01 10:21:33;;;;;;;4.60;4.30;;;22.90;99.90;;;;;;5041390;28;20981;-80
2022/09/01 10:24:04;;;;;;;4.80;4.50;;;23.10;99.90;;;;;;5046402;28;20629;-80
2022/09/01 10:26:35;;;;;;;4.13;3.83;;;23.20;99.90;;;;;;5041503;28;20649;-80
2022/09/01 10:29:07;;;;;;;3.60;3.40;;;23.20;99.90;;;;;;5045536;28;20617;-80
2022/09/01 10:31:36;;;;;;;4.23;3.93;;;23.40;99.90;;;;;;5042718;28;20611;-80
2022/09/01 10:34:05;;;;;;;4.37;3.97;;;23.40;99.90;;;;;;5045037;28;20626;-80
2022/09/01 10:36:34;;;;;;;3.70;3.50;;;23.20;99.90;;;;;;5041751;28;20732;-80
2022/09/01 10:39:01;;;;;;;5.30;4.07;;;23.40;99.90;;;;;;5043573;28;21286;-80
2022/09/01 10:41:55;;;;;;;3.67;3.47;;;23.50;99.90;;;;;;5037305;28;20630;-80
2022/09/01 10:44:29;;;;;;;3.60;3.30;;;23.60;99.90;;;;;;5022321;28;20734;-80
2022/09/01 10:46:58;;;;;;;3.40;3.20;;;23.70;99.90;;;;;;5042706;28;21188;-80
2022/09/01 10:50:00;;;;;;;3.30;3.00;;;23.70;99.90;;;;;;5043616;28;20711;-80
2022/09/01 10:53:09;;;;;;;3.60;3.33;;;23.90;99.90;;;;;;5042613;28;20614;-80
2022/09/01 10:55:44;;;;;;;4.00;3.70;;;23.60;99.90;;;;;;5042054;28;21015;-80
2022/09/01 10:58:50;;;;;;;3.23;3.03;;;23.50;99.90;;;;;;5041602;28;20687;-80
2022/09/01 11:01:56;;;;;;;4.30;3.93;;;23.50;99.90;;;;;;4985217;28;20687;-80
2022/09/01 11:04:44;;;;;;;3.83;3.57;;;23.50;99.90;;;;;;4982184;28;20729;-80
2022/09/01 11:07:30;;;;;;;3.80;3.50;;;23.80;99.90;;;;;;5035390;28;20622;-80
2022/09/01 11:10:21;;;;;;;3.57;3.33;;;24.10;99.90;;;;;;5041483;28;20614;-80
2022/09/01 11:13:09;;;;;;;3.90;3.60;;;24.20;99.90;;;;;;5024696;28;20670;-80
2022/09/01 11:15:41;;;;;;;3.43;3.23;;;24.30;99.90;;;;;;5032948;28;20657;-80
2022/09/01 11:18:13;;;;;;;3.37;3.17;;;24.30;99.90;;;;;;5041598;28;20640;-80
2022/09/01 11:20:41;;;;;;;3.20;3.00;;;24.90;99.90;;;;;;5041839;28;20661;-80
2022/09/01 11:23:12;;;;;;;3.63;3.43;;;25.50;99.90;;;;;;5039926;28;20717;-80
2022/09/01 11:25:42;;;;;;;3.67;3.37;;;25.90;99.90;;;;;;5041518;28;20839;-80
2022/09/01 11:28:41;;;;;;;3.60;3.30;;;26.10;99.90;;;;;;5030902;28;20618;-80
2022/09/01 11:31:29;;;;;;;3.80;3.50;;;26.40;99.90;;;;;;5041449;28;20616;-81
2022/09/01 11:34:12;;;;;;;3.50;3.30;;;26.60;93.80;;;;;;5043825;28;20638;-80
2022/09/01 11:36:57;;;;;;;3.97;3.73;;;26.50;94.90;;;;;;5040657;28;21240;-80
2022/09/01 11:39:34;;;;;;;3.97;3.67;;;26.60;95.10;;;;;;5041618;28;20658;-80
2022/09/01 11:42:13;;;;;;;3.93;3.53;;;26.80;97.30;;;;;;5041332;28;20667;-79
2022/09/01 11:44:45;;;;;;;7.37;3.40;;;27.10;97.30;;;;;;5041294;28;20672;-80
2022/09/01 11:47:19;;;;;;;4.63;3.13;;;27.40;91.20;;;;;;5041397;28;20613;-79
2022/09/01 11:49:53;;;;;;;3.33;2.60;;;27.60;90.70;;;;;;5040557;28;20713;-79
2022/09/01 11:52:22;;;;;;;3.27;3.07;;;28.00;89.90;;;;;;5041248;28;20614;-79
2022/09/01 11:54:55;;;;;;;3.63;3.33;;;28.60;85.90;;;;;;5041462;28;20756;-78
2022/09/01 11:57:35;;;;;;;3.80;3.50;;;28.10;80.40;;;;;;5039819;28;20630;-78
2022/09/01 12:00:06;;;;;;;5.40;4.57;;;28.20;79.80;;;;;;5045070;28;21027;-79
2022/09/01 12:02:35;;;;;;;4.30;3.57;;;28.30;83.70;;;;;;5043042;28;20642;-79
2022/09/01 12:05:33;;;;;;;3.70;3.50;;;28.30;86.00;;;;;;5042902;28;21290;-79
2022/09/01 12:08:03;;;;;;;3.43;3.23;;;28.20;87.20;;;;;;5042466;28;20624;-79
2022/09/01 12:10:33;;;;;;;3.10;2.90;;;27.90;86.50;;;;;;5044398;28;20604;-79
2022/09/01 12:13:12;;;;;;;3.43;3.13;;;27.60;88.20;;;;;;5045414;28;20620;-79
2022/09/01 12:15:45;;;;;;;4.97;3.20;;;27.40;90.20;;;;;;5045845;28;20653;-79
2022/09/01 12:18:19;;;;;;;4.07;3.77;;;27.10;90.70;;;;;;5044250;28;20623;-79
2022/09/01 12:20:49;;;;;;;3.60;3.30;;;27.00;91.60;;;;;;5042843;28;21307;-79
2022/09/01 12:23:22;;;;;;;3.20;2.90;;;26.90;90.20;;;;;;5045724;28;21251;-79
2022/09/01 12:25:50;;;;;;;3.47;3.27;;;26.90;90.10;;;;;;5043890;28;21309;-79
2022/09/01 12:28:17;;;;;;;3.27;3.07;;;26.70;87.00;;;;;;5045017;28;20627;-79
2022/09/01 12:30:44;;;;;;;3.10;2.90;;;26.70;86.80;;;;;;5045323;28;21001;-79
2022/09/01 12:33:13;;;;;;;3.37;3.17;;;26.40;83.40;;;;;;5044365;28;20626;-79
2022/09/01 12:35:41;;;;;;;3.83;3.60;;;26.30;89.00;;;;;;5045110;28;20657;-79
2022/09/01 12:38:28;;;;;;;3.77;3.57;;;26.10;90.70;;;;;;5041405;28;20621;-79
2022/09/01 12:40:57;;;;;;;3.70;3.40;;;26.20;88.80;;;;;;5041692;28;20657;-79
2022/09/01 12:43:30;;;;;;;3.67;3.37;;;26.20;88.80;;;;;;5036199;28;20730;-80
2022/09/01 12:45:59;;;;;;;3.50;3.30;;;26.30;86.80;;;;;;5041928;28;20736;-78
2022/09/01 12:48:28;;;;;;;3.67;3.47;;;26.50;86.60;;;;;;5040240;28;20629;-80
2022/09/01 12:50:57;;;;;;;3.00;2.90;;;26.00;87.60;;;;;;5045314;28;20625;-79
2022/09/01 12:53:30;;;;;;;2.40;2.30;;;26.20;87.40;;;;;;5044279;28;20653;-79
2022/09/01 12:56:20;;;;;;;4.80;3.20;;;26.50;85.80;;;;;;5043516;28;20756;-79
2022/09/01 12:58:52;;;;;;;3.83;3.50;;;26.80;86.20;;;;;;5040359;28;21090;-78